Time;durP1;ratioP1;P1;durP2;ratioP2;P2;SDS_P1;SDS_P2;PMS_P1;PMS_P2;Temp;Humidity;BMP_temperature;BMP_pressure;BME280_temperature;BME280_humidity;BME280_pressure;Samples;Min_cycle;Max_cycle;Signal;HPM_P1;HPM_P2
2022/04/30 00:00:16;;;;;;;9.40;5.38;;;8.00;76.40;;;;;;5089678;28;20485;-68
2022/04/30 00:02:42;;;;;;;10.95;5.18;;;8.00;76.40;;;;;;5087430;28;20048;-67
2022/04/30 00:05:09;;;;;;;10.48;5.07;;;8.00;76.40;;;;;;5087967;28;20085;-67
2022/04/30 00:07:35;;;;;;;5.95;4.78;;;8.00;76.50;;;;;;5089835;28;20059;-67
2022/04/30 00:10:01;;;;;;;10.20;4.93;;;7.90;76.50;;;;;;5089504;28;20052;-67
2022/04/30 00:12:28;;;;;;;6.95;5.18;;;7.90;76.60;;;;;;5089665;28;20121;-67
2022/04/30 00:14:55;;;;;;;9.65;4.97;;;7.90;76.60;;;;;;5089545;28;20043;-67
2022/04/30 00:17:21;;;;;;;9.77;4.65;;;7.90;76.60;;;;;;5089461;28;20054;-67
2022/04/30 00:19:46;;;;;;;11.52;5.32;;;7.90;76.80;;;;;;5088893;28;20040;-67
2022/04/30 00:22:12;;;;;;;9.43;4.75;;;7.80;76.90;;;;;;5089485;28;20072;-67
2022/04/30 00:24:38;;;;;;;7.22;4.70;;;7.80;77.00;;;;;;5088631;28;20047;-66
2022/04/30 00:27:04;;;;;;;7.65;4.85;;;7.80;77.10;;;;;;5088985;28;20539;-67
2022/04/30 00:29:30;;;;;;;7.13;4.60;;;7.70;77.10;;;;;;5084641;28;20412;-67
2022/04/30 00:32:00;;;;;;;10.77;5.07;;;7.80;77.10;;;;;;5068994;28;20123;-67
2022/04/30 00:34:25;;;;;;;8.93;4.50;;;7.70;77.10;;;;;;5068074;28;20072;-67
2022/04/30 00:36:51;;;;;;;11.23;5.93;;;7.70;77.00;;;;;;5085385;28;20457;-66
2022/04/30 00:39:17;;;;;;;12.10;5.40;;;7.70;77.00;;;;;;5088023;28;20135;-66
2022/04/30 00:41:47;;;;;;;8.07;4.82;;;7.70;77.00;;;;;;5071119;28;20036;-67
2022/04/30 00:44:19;;;;;;;8.70;4.43;;;7.60;77.20;;;;;;5089414;28;20067;-67
2022/04/30 00:46:46;;;;;;;8.52;4.97;;;7.60;77.20;;;;;;5089237;28;20036;-66
2022/04/30 00:49:12;;;;;;;7.70;5.40;;;7.60;77.20;;;;;;5088862;28;20075;-67
2022/04/30 00:51:46;;;;;;;8.45;4.88;;;7.60;77.30;;;;;;5089024;28;20586;-67
2022/04/30 00:54:13;;;;;;;6.30;4.50;;;7.60;77.30;;;;;;5088315;28;20075;-68
2022/04/30 00:56:45;;;;;;;7.15;4.55;;;7.70;77.20;;;;;;5089219;28;20065;-67
2022/04/30 00:59:17;;;;;;;11.70;5.50;;;7.70;77.20;;;;;;5089344;28;20044;-66
2022/04/30 01:01:43;;;;;;;10.57;5.15;;;7.60;77.30;;;;;;5089192;28;20055;-66
2022/04/30 01:04:09;;;;;;;9.88;4.82;;;7.60;77.30;;;;;;5080734;28;20473;-68
2022/04/30 01:06:51;;;;;;;11.13;5.75;;;7.60;77.40;;;;;;5068253;28;20093;-66
2022/04/30 01:09:20;;;;;;;11.80;4.93;;;7.60;77.60;;;;;;5068593;28;20082;-67
2022/04/30 01:11:48;;;;;;;14.40;5.40;;;7.60;77.80;;;;;;5068934;28;20043;-67
2022/04/30 01:14:15;;;;;;;12.48;5.57;;;7.60;77.80;;;;;;5068704;28;20047;-67
2022/04/30 01:16:43;;;;;;;10.43;5.07;;;7.60;77.90;;;;;;5068799;28;20095;-66
2022/04/30 01:19:13;;;;;;;9.13;5.07;;;7.60;77.90;;;;;;5069883;28;20048;-67
2022/04/30 01:21:42;;;;;;;7.85;5.53;;;7.50;77.90;;;;;;5069587;28;20048;-67
2022/04/30 01:24:08;;;;;;;12.75;5.55;;;7.60;78.20;;;;;;5068883;28;20055;-67
2022/04/30 01:26:35;;;;;;;9.57;5.47;;;7.60;78.10;;;;;;5069060;28;20040;-68
2022/04/30 01:29:01;;;;;;;11.57;5.65;;;7.60;78.30;;;;;;5081961;28;20172;-67
2022/04/30 01:39:39;;;;;;;8.35;4.88;;;7.70;79.10;;;;;;5092515;28;20048;-67
2022/04/30 01:42:12;;;;;;;10.50;5.15;;;7.70;79.40;;;;;;5092308;28;20444;-66
2022/04/30 01:44:45;;;;;;;11.00;5.25;;;7.80;79.10;;;;;;5090839;28;20235;-67
2022/04/30 01:47:11;;;;;;;11.50;5.45;;;7.80;79.00;;;;;;5092774;28;20043;-66
2022/04/30 01:49:37;;;;;;;9.23;5.47;;;7.90;79.50;;;;;;5092154;28;20066;-66
2022/04/30 01:52:09;;;;;;;10.70;5.22;;;7.90;79.40;;;;;;5091742;28;20736;-66
2022/04/30 01:54:35;;;;;;;8.57;5.43;;;7.90;79.20;;;;;;5092247;28;20079;-66
2022/04/30 01:57:02;;;;;;;16.05;5.70;;;8.00;79.30;;;;;;5087860;28;20044;-66
2022/04/30 01:59:28;;;;;;;11.25;5.88;;;8.00;79.70;;;;;;5071800;28;20052;-66
2022/04/30 02:01:55;;;;;;;11.57;6.00;;;8.10;79.30;;;;;;5071891;28;20055;-67
2022/04/30 02:04:21;;;;;;;9.35;6.40;;;8.10;79.40;;;;;;5071800;28;20094;-66
2022/04/30 02:06:48;;;;;;;9.85;5.85;;;8.10;79.70;;;;;;5071007;28;20057;-67
2022/04/30 02:09:14;;;;;;;12.10;6.40;;;8.10;79.70;;;;;;5071744;28;20045;-66
2022/04/30 02:11:42;;;;;;;10.05;5.85;;;8.20;79.50;;;;;;5071587;28;20545;-66
2022/04/30 02:14:10;;;;;;;10.65;5.55;;;8.10;79.40;;;;;;5070211;28;20048;-66
2022/04/30 02:16:38;;;;;;;8.82;5.82;;;8.20;79.30;;;;;;5071640;28;20044;-68
2022/04/30 02:19:07;;;;;;;11.93;5.50;;;8.20;79.50;;;;;;5071227;28;20519;-67
2022/04/30 02:21:33;;;;;;;7.40;5.00;;;8.20;79.90;;;;;;5104041;28;20100;-67
2022/04/30 02:24:00;;;;;;;7.88;4.97;;;8.20;80.20;;;;;;5071136;28;20084;-67
2022/04/30 02:26:27;;;;;;;9.55;5.70;;;8.20;80.20;;;;;;5071391;28;20060;-66
2022/04/30 02:28:57;;;;;;;9.02;5.32;;;8.30;80.10;;;;;;5071215;28;20045;-67
2022/04/30 02:31:25;;;;;;;10.95;5.43;;;8.30;80.10;;;;;;5071271;28;20088;-68
2022/04/30 02:33:55;;;;;;;9.52;4.88;;;8.30;79.90;;;;;;5071177;28;20531;-67
2022/04/30 02:36:29;;;;;;;7.45;5.22;;;8.40;79.80;;;;;;5081542;28;20052;-67
2022/04/30 02:38:56;;;;;;;9.38;5.05;;;8.40;79.70;;;;;;5091410;28;20101;-67
2022/04/30 02:41:22;;;;;;;8.32;4.70;;;8.50;79.70;;;;;;5091072;28;20052;-67
2022/04/30 02:43:52;;;;;;;7.43;4.70;;;8.50;79.80;;;;;;5091051;28;20408;-68
2022/04/30 02:46:21;;;;;;;9.02;4.80;;;8.60;79.60;;;;;;5089914;28;20048;-67
2022/04/30 02:48:47;;;;;;;10.77;4.93;;;8.60;79.60;;;;;;5091083;28;20047;-67
2022/04/30 02:51:15;;;;;;;8.98;5.07;;;8.50;80.00;;;;;;5090591;28;20054;-67
2022/04/30 02:53:41;;;;;;;13.90;5.00;;;8.50;79.80;;;;;;5090938;28;20044;-67
2022/04/30 02:56:09;;;;;;;9.50;5.07;;;8.50;79.90;;;;;;5091037;28;20044;-67
2022/04/30 03:01:20;;;;;;;12.15;5.63;;;8.50;79.80;;;;;;5070734;28;20494;-67
2022/04/30 03:03:49;;;;;;;8.00;5.07;;;8.60;79.90;;;;;;5070715;28;20048;-67
2022/04/30 03:06:16;;;;;;;10.25;4.82;;;8.50;79.90;;;;;;5070511;28;20870;-67
2022/04/30 03:08:46;;;;;;;7.80;4.63;;;8.50;79.70;;;;;;5070516;28;20059;-67
2022/04/30 03:11:12;;;;;;;9.68;4.53;;;8.50;79.60;;;;;;5070641;28;20433;-67
2022/04/30 03:13:38;;;;;;;8.75;4.32;;;8.50;79.50;;;;;;5070207;28;20036;-67
2022/04/30 03:21:44;;;;;;;8.45;3.70;;;8.40;79.30;;;;;;5090423;28;20428;-68
2022/04/30 03:24:12;;;;;;;6.13;4.25;;;8.40;79.30;;;;;;5090640;28;20454;-67
2022/04/30 03:26:38;;;;;;;6.80;4.47;;;8.40;79.30;;;;;;5073423;28;20047;-68
2022/04/30 03:29:03;;;;;;;6.65;4.00;;;8.40;79.20;;;;;;5070090;28;20409;-68
2022/04/30 03:31:30;;;;;;;11.95;4.40;;;8.40;79.20;;;;;;5070014;28;20044;-68
2022/04/30 03:33:56;;;;;;;5.40;3.72;;;8.40;79.20;;;;;;5070018;28;20052;-67
2022/04/30 03:36:21;;;;;;;10.38;4.78;;;8.50;79.10;;;;;;5070099;28;20068;-67
2022/04/30 03:38:48;;;;;;;7.55;4.00;;;8.50;79.10;;;;;;5069755;28;20052;-67
2022/04/30 03:41:15;;;;;;;9.07;4.25;;;8.40;79.10;;;;;;5069937;28;20526;-68
2022/04/30 03:43:41;;;;;;;8.32;3.75;;;8.40;79.10;;;;;;5069914;28;20056;-67
2022/04/30 03:46:07;;;;;;;7.35;4.32;;;8.40;79.00;;;;;;5069931;28;20503;-67
2022/04/30 03:48:33;;;;;;;10.55;4.18;;;8.40;79.10;;;;;;5069744;28;20059;-67
2022/04/30 03:50:59;;;;;;;5.97;3.80;;;8.40;79.10;;;;;;5072662;28;20044;-67
2022/04/30 03:53:25;;;;;;;7.65;4.45;;;8.40;79.10;;;;;;5088703;28;20131;-67
2022/04/30 03:55:51;;;;;;;8.68;4.35;;;8.30;79.10;;;;;;5089866;28;20487;-67
2022/04/30 03:58:17;;;;;;;5.57;4.25;;;8.30;79.20;;;;;;5089845;28;20055;-66
2022/04/30 04:00:43;;;;;;;8.30;4.63;;;8.30;79.20;;;;;;5089056;28;20408;-67
2022/04/30 04:03:09;;;;;;;9.52;4.40;;;8.40;79.10;;;;;;5089480;28;20048;-67
2022/04/30 04:05:35;;;;;;;13.05;4.30;;;8.40;79.10;;;;;;5089821;28;20044;-67
2022/04/30 04:08:00;;;;;;;10.15;4.88;;;8.40;79.00;;;;;;5089392;28;20166;-68
2022/04/30 04:10:26;;;;;;;7.97;4.50;;;8.40;79.10;;;;;;5089548;28;20151;-67
2022/04/30 04:12:52;;;;;;;8.25;4.82;;;8.50;79.20;;;;;;5089727;28;20048;-68
2022/04/30 04:18:03;;;;;;;6.63;4.43;;;8.50;79.20;;;;;;5068898;28;20056;-67
2022/04/30 04:20:28;;;;;;;9.80;4.60;;;8.50;79.20;;;;;;5084342;28;20389;-67
2022/04/30 04:22:55;;;;;;;10.00;3.83;;;8.50;79.20;;;;;;5089543;28;20051;-68
2022/04/30 04:28:06;;;;;;;7.40;4.32;;;8.50;79.20;;;;;;5089267;28;20044;-68
2022/04/30 04:30:32;;;;;;;10.65;4.25;;;8.60;79.20;;;;;;5089169;28;20051;-68
2022/04/30 04:32:58;;;;;;;8.75;4.43;;;8.60;79.20;;;;;;5089021;28;20382;-68
2022/04/30 04:35:25;;;;;;;8.73;4.88;;;8.60;79.20;;;;;;5088806;28;20048;-68
2022/04/30 04:37:51;;;;;;;9.57;5.18;;;8.70;79.20;;;;;;5089114;28;20417;-67
2022/04/30 04:40:18;;;;;;;8.30;4.40;;;8.70;79.10;;;;;;5089423;28;20043;-68
2022/04/30 04:42:44;;;;;;;7.28;4.32;;;8.70;79.00;;;;;;5089014;28;20173;-67
2022/04/30 04:45:10;;;;;;;6.65;4.30;;;8.70;79.00;;;;;;5088606;28;20040;-66
2022/04/30 04:47:41;;;;;;;8.73;3.85;;;8.70;79.10;;;;;;5081844;28;20049;-67
2022/04/30 04:50:12;;;;;;;7.63;4.10;;;8.70;79.10;;;;;;5069404;28;20082;-68
2022/04/30 04:52:38;;;;;;;12.75;6.65;;;8.80;79.10;;;;;;5069073;28;20047;-67
2022/04/30 04:55:04;;;;;;;7.10;3.83;;;8.80;79.10;;;;;;5068653;28;20048;-68
2022/04/30 04:57:29;;;;;;;10.45;5.18;;;8.80;79.10;;;;;;5069888;28;20045;-68
2022/04/30 04:59:55;;;;;;;11.38;4.53;;;8.80;79.10;;;;;;5068835;28;20055;-67
2022/04/30 05:02:21;;;;;;;7.38;4.20;;;8.80;79.00;;;;;;5086221;28;20044;-67
2022/04/30 05:04:47;;;;;;;9.50;4.32;;;8.80;79.00;;;;;;5088764;28;20036;-67
2022/04/30 05:07:12;;;;;;;6.93;4.60;;;8.80;79.00;;;;;;5088736;28;20052;-68
2022/04/30 05:09:38;;;;;;;10.20;4.82;;;8.90;79.00;;;;;;5089786;28;20520;-68
2022/04/30 05:12:04;;;;;;;8.18;4.25;;;8.90;79.00;;;;;;5092670;28;20147;-68
2022/04/30 05:14:33;;;;;;;10.00;5.25;;;8.90;79.00;;;;;;5085057;28;20036;-67
2022/04/30 05:17:04;;;;;;;6.72;4.38;;;8.90;79.00;;;;;;5072631;28;20098;-67
2022/04/30 05:19:29;;;;;;;7.65;4.45;;;8.90;79.10;;;;;;5073175;28;20447;-68
2022/04/30 05:21:55;;;;;;;11.75;5.05;;;8.90;79.00;;;;;;5072650;28;20102;-68
2022/04/30 05:24:21;;;;;;;12.40;5.07;;;9.00;79.10;;;;;;5072344;28;20401;-67
2022/04/30 05:26:47;;;;;;;11.32;5.40;;;9.00;79.00;;;;;;5072181;28;20048;-68
2022/04/30 05:29:13;;;;;;;8.80;5.20;;;9.00;78.90;;;;;;5072783;28;20045;-67
2022/04/30 05:31:39;;;;;;;9.60;5.05;;;9.00;78.90;;;;;;5092359;28;20378;-67
2022/04/30 05:34:04;;;;;;;10.93;5.60;;;9.00;78.90;;;;;;5091343;28;20055;-67
2022/04/30 05:36:30;;;;;;;10.25;6.22;;;9.00;78.90;;;;;;5092391;28;20449;-66
2022/04/30 05:38:56;;;;;;;9.70;5.72;;;9.00;78.80;;;;;;5092671;28;20051;-67
2022/04/30 05:41:21;;;;;;;7.90;4.80;;;9.00;78.90;;;;;;5092435;28;20044;-67
2022/04/30 05:43:47;;;;;;;8.77;6.43;;;8.90;78.90;;;;;;5074225;28;20458;-67
2022/04/30 05:46:13;;;;;;;10.90;5.43;;;8.90;79.00;;;;;;5091378;28;20097;-67
2022/04/30 05:48:39;;;;;;;13.93;6.32;;;8.90;79.10;;;;;;5092173;28;20101;-66
2022/04/30 05:51:05;;;;;;;10.20;6.35;;;8.90;79.20;;;;;;5091234;28;20039;-67
2022/04/30 05:53:31;;;;;;;9.88;6.32;;;8.90;79.30;;;;;;5092199;28;20489;-68
2022/04/30 05:55:57;;;;;;;8.93;5.72;;;8.90;79.70;;;;;;5092168;28;20093;-67
2022/04/30 05:58:23;;;;;;;12.98;6.97;;;8.80;80.10;;;;;;5091775;28;20493;-67
2022/04/30 06:00:48;;;;;;;10.60;6.35;;;8.90;79.90;;;;;;5075425;28;20074;-68
2022/04/30 06:03:14;;;;;;;18.10;7.55;;;9.00;79.90;;;;;;5072250;28;20033;-68
2022/04/30 06:05:39;;;;;;;14.43;7.18;;;9.00;80.00;;;;;;5071701;28;20040;-68
2022/04/30 06:08:06;;;;;;;11.80;8.07;;;9.10;80.00;;;;;;5071532;28;20410;-67
2022/04/30 06:10:32;;;;;;;11.07;6.97;;;9.10;80.30;;;;;;5071011;28;20045;-67
2022/04/30 06:12:59;;;;;;;10.82;6.95;;;9.20;80.30;;;;;;5073761;28;20036;-68
2022/04/30 06:15:25;;;;;;;13.93;7.55;;;9.20;80.30;;;;;;5091664;28;20059;-68
2022/04/30 06:17:50;;;;;;;15.48;7.70;;;9.30;80.00;;;;;;5089551;28;20037;-68
2022/04/30 06:20:16;;;;;;;13.48;7.30;;;9.50;79.80;;;;;;5085273;28;20041;-68
2022/04/30 06:22:42;;;;;;;14.10;7.53;;;9.60;80.10;;;;;;5070058;28;20083;-68
2022/04/30 06:25:08;;;;;;;13.63;6.95;;;9.70;79.70;;;;;;5071326;28;20040;-69
2022/04/30 06:27:34;;;;;;;9.98;6.50;;;9.90;79.60;;;;;;5070012;28;20060;-66
2022/04/30 06:30:00;;;;;;;11.15;5.72;;;9.90;79.00;;;;;;5071034;28;20512;-66
2022/04/30 06:32:26;;;;;;;9.93;6.13;;;10.00;78.40;;;;;;5071022;28;20060;-67
2022/04/30 06:34:52;;;;;;;13.65;6.50;;;10.00;78.20;;;;;;5071184;28;20056;-67
2022/04/30 06:37:17;;;;;;;12.80;7.72;;;10.00;77.90;;;;;;5071066;28;20048;-67
2022/04/30 06:39:44;;;;;;;12.30;7.25;;;10.10;77.90;;;;;;5069977;28;20055;-66
2022/04/30 06:42:09;;;;;;;10.25;7.53;;;10.00;77.80;;;;;;5070972;28;20044;-66
2022/04/30 06:44:35;;;;;;;10.00;7.10;;;10.00;78.00;;;;;;5070735;28;20404;-66
2022/04/30 06:47:01;;;;;;;11.75;6.65;;;10.00;78.10;;;;;;5070856;28;20052;-66
2022/04/30 06:49:26;;;;;;;15.32;7.53;;;9.80;78.40;;;;;;5070775;28;20045;-66
2022/04/30 06:51:52;;;;;;;18.73;9.45;;;9.70;78.70;;;;;;5070546;28;20088;-66
2022/04/30 06:57:12;;;;;;;10.35;7.25;;;9.70;79.20;;;;;;5070398;28;20052;-67
2022/04/30 06:59:40;;;;;;;9.40;6.95;;;9.70;79.00;;;;;;5070969;28;20040;-68
2022/04/30 07:02:12;;;;;;;13.40;6.07;;;9.60;78.60;;;;;;5070707;28;20510;-68
2022/04/30 07:04:39;;;;;;;11.40;6.60;;;9.60;78.60;;;;;;5070751;28;20080;-67
2022/04/30 07:07:05;;;;;;;10.05;6.05;;;9.60;78.70;;;;;;5070331;28;20507;-66
2022/04/30 07:09:33;;;;;;;10.68;7.50;;;9.60;78.70;;;;;;5068926;28;20493;-66
2022/04/30 07:12:01;;;;;;;10.45;6.35;;;9.70;78.50;;;;;;5070738;28;20501;-66
2022/04/30 07:14:26;;;;;;;11.35;6.63;;;9.90;78.30;;;;;;5070369;28;20119;-66
2022/04/30 07:16:52;;;;;;;13.07;7.65;;;10.00;78.10;;;;;;5071000;28;20135;-67
2022/04/30 07:19:17;;;;;;;11.23;6.68;;;10.10;77.90;;;;;;5072019;28;20040;-66
2022/04/30 07:21:43;;;;;;;14.60;7.65;;;10.10;77.60;;;;;;5089151;28;20036;-67
2022/04/30 07:24:09;;;;;;;14.45;7.07;;;10.20;77.40;;;;;;5088929;28;20044;-67
2022/04/30 07:26:34;;;;;;;10.98;5.60;;;10.30;77.20;;;;;;5086569;28;20102;-67
2022/04/30 07:29:00;;;;;;;9.88;5.95;;;10.40;76.90;;;;;;5082614;28;20044;-67
2022/04/30 07:31:25;;;;;;;10.13;6.13;;;10.40;76.30;;;;;;5081885;28;20142;-67
2022/04/30 07:33:51;;;;;;;10.20;6.32;;;10.40;76.30;;;;;;5070414;28;20047;-67
2022/04/30 07:36:18;;;;;;;13.40;6.18;;;10.30;76.30;;;;;;5069867;28;20041;-67
2022/04/30 07:38:44;;;;;;;13.65;6.13;;;10.30;76.20;;;;;;5074523;28;20174;-67
2022/04/30 07:41:09;;;;;;;11.70;6.05;;;10.30;76.30;;;;;;5069834;28;20128;-68
2022/04/30 07:43:35;;;;;;;10.57;6.28;;;10.30;76.40;;;;;;5051778;28;20086;-67
2022/04/30 07:46:00;;;;;;;10.25;5.25;;;10.30;76.40;;;;;;5069680;28;20495;-67
2022/04/30 07:48:26;;;;;;;8.70;6.10;;;10.40;76.30;;;;;;5071536;28;20447;-66
2022/04/30 07:50:57;;;;;;;10.25;6.07;;;10.40;75.80;;;;;;5076986;28;20875;-67
2022/04/30 07:53:23;;;;;;;10.20;6.10;;;10.50;75.50;;;;;;5085315;28;20048;-67
2022/04/30 07:55:49;;;;;;;7.90;5.85;;;10.50;75.20;;;;;;5089342;28;20043;-66
2022/04/30 07:58:15;;;;;;;9.13;5.55;;;10.60;74.90;;;;;;5083470;28;20041;-66
2022/04/30 08:00:40;;;;;;;8.82;5.93;;;10.50;74.90;;;;;;5069454;28;20416;-66
2022/04/30 08:03:06;;;;;;;10.43;5.88;;;10.60;74.90;;;;;;5068015;28;20057;-67
2022/04/30 08:05:32;;;;;;;9.95;5.28;;;10.60;74.60;;;;;;5084591;28;20056;-66
2022/04/30 08:07:57;;;;;;;10.43;5.80;;;10.60;74.70;;;;;;5068898;28;20569;-66
2022/04/30 08:10:24;;;;;;;10.07;6.25;;;10.60;74.60;;;;;;5069129;28;20050;-66
2022/04/30 08:12:54;;;;;;;8.65;5.43;;;10.60;74.70;;;;;;5084752;28;20139;-67
2022/04/30 08:15:21;;;;;;;9.18;4.32;;;10.70;74.80;;;;;;5068829;28;20043;-69
2022/04/30 08:17:47;;;;;;;7.97;4.25;;;10.70;74.30;;;;;;5069060;28;20056;-66
2022/04/30 08:20:13;;;;;;;10.25;4.78;;;10.70;73.70;;;;;;5077846;28;20485;-66
2022/04/30 08:22:39;;;;;;;7.28;4.93;;;10.80;73.50;;;;;;5089363;28;20042;-66
2022/04/30 08:25:05;;;;;;;9.95;4.60;;;11.00;73.20;;;;;;5082218;28;20051;-66
2022/04/30 08:27:30;;;;;;;8.20;3.35;;;11.00;72.60;;;;;;5078882;28;20048;-66
2022/04/30 08:29:56;;;;;;;7.85;3.60;;;11.10;72.20;;;;;;5072025;28;20040;-66
2022/04/30 08:32:25;;;;;;;10.13;3.90;;;11.20;71.30;;;;;;5068707;28;20123;-67
2022/04/30 08:34:51;;;;;;;5.93;3.67;;;11.20;70.60;;;;;;5081672;28;20046;-67
2022/04/30 08:37:17;;;;;;;7.03;4.00;;;11.30;70.10;;;;;;5088968;28;20516;-66
2022/04/30 08:39:44;;;;;;;7.97;4.78;;;11.40;70.00;;;;;;5076557;28;20048;-67
2022/04/30 08:42:10;;;;;;;11.07;4.25;;;11.50;69.80;;;;;;5068532;28;20052;-67
2022/04/30 08:44:39;;;;;;;5.88;4.13;;;11.50;69.40;;;;;;5067941;28;20123;-67
2022/04/30 08:47:06;;;;;;;6.70;3.88;;;11.60;69.30;;;;;;5081479;28;20048;-67
2022/04/30 08:49:32;;;;;;;7.15;3.15;;;11.60;69.10;;;;;;5087887;28;20051;-67
2022/04/30 08:51:59;;;;;;;6.55;4.10;;;11.40;67.90;;;;;;5086274;28;20040;-67
2022/04/30 08:54:24;;;;;;;6.88;4.32;;;11.40;68.00;;;;;;5067963;28;20044;-66
2022/04/30 08:56:55;;;;;;;11.57;5.38;;;11.30;68.40;;;;;;5068327;28;20045;-67
2022/04/30 08:59:22;;;;;;;9.13;4.70;;;11.20;68.80;;;;;;5069463;28;20452;-67
2022/04/30 09:01:55;;;;;;;9.70;4.63;;;11.20;69.50;;;;;;5068702;28;20128;-67
2022/04/30 09:04:21;;;;;;;9.23;4.93;;;11.10;69.90;;;;;;5068060;28;20045;-67
2022/04/30 09:06:51;;;;;;;8.95;5.57;;;11.10;70.30;;;;;;5069769;28;20047;-67
2022/04/30 09:09:28;;;;;;;10.63;5.00;;;11.20;70.50;;;;;;5068295;28;20501;-66
2022/04/30 09:12:07;;;;;;;12.68;6.90;;;11.30;70.00;;;;;;5068640;28;20481;-67
2022/04/30 09:14:33;;;;;;;4.95;3.50;;;11.20;69.90;;;;;;5084981;28;20507;-67
2022/04/30 09:17:12;;;;;;;4.90;3.53;;;11.10;69.10;;;;;;5086950;28;20130;-67
2022/04/30 09:19:45;;;;;;;5.82;3.50;;;11.10;68.20;;;;;;5088650;28;20073;-67
2022/04/30 09:22:10;;;;;;;11.43;5.18;;;11.10;68.00;;;;;;5088567;28;20060;-67
2022/04/30 09:24:50;;;;;;;10.13;4.05;;;11.10;68.00;;;;;;5087735;28;20153;-69
2022/04/30 09:27:17;;;;;;;6.68;4.00;;;11.10;68.50;;;;;;5066650;28;20123;-68
2022/04/30 09:29:43;;;;;;;6.95;3.75;;;11.10;68.50;;;;;;5067668;28;20472;-68
2022/04/30 09:32:19;;;;;;;11.43;4.78;;;11.10;68.30;;;;;;5077843;28;20056;-67
2022/04/30 09:37:48;;;;;;;8.60;4.03;;;11.10;69.50;;;;;;5084212;28;20111;-68
2022/04/30 09:40:13;;;;;;;9.35;3.65;;;11.10;69.60;;;;;;5087763;28;20055;-67
2022/04/30 09:42:40;;;;;;;7.05;3.67;;;11.00;69.40;;;;;;5087878;28;20040;-66
2022/04/30 09:45:07;;;;;;;7.97;3.17;;;11.00;69.50;;;;;;5079747;28;20722;-67
2022/04/30 09:47:34;;;;;;;9.90;3.75;;;11.00;69.20;;;;;;5072075;28;20037;-67
2022/04/30 09:55:31;;;;;;;6.45;4.78;;;11.00;70.60;;;;;;5088182;28;20072;-66
2022/04/30 09:58:04;;;;;;;9.63;4.85;;;11.00;71.10;;;;;;5091734;28;20097;-67
2022/04/30 10:00:33;;;;;;;8.80;4.57;;;11.00;72.10;;;;;;5087019;28;20036;-67
2022/04/30 10:03:02;;;;;;;7.90;4.88;;;10.90;72.70;;;;;;5089333;28;20271;-67
2022/04/30 10:05:30;;;;;;;8.52;3.90;;;10.90;72.70;;;;;;5086574;28;20060;-67
2022/04/30 10:07:56;;;;;;;5.93;3.53;;;10.90;73.00;;;;;;5075716;28;20082;-66
2022/04/30 10:10:31;;;;;;;8.60;4.13;;;10.90;73.00;;;;;;5071317;28;20052;-66
2022/04/30 10:13:15;;;;;;;10.50;3.50;;;10.90;72.30;;;;;;5071226;28;20081;-67
2022/04/30 10:15:57;;;;;;;7.63;3.53;;;10.80;72.10;;;;;;5071665;28;20040;-66
2022/04/30 10:18:33;;;;;;;10.05;4.75;;;10.80;72.20;;;;;;5091063;28;20050;-67
2022/04/30 10:21:00;;;;;;;10.50;4.28;;;10.80;72.50;;;;;;5084478;28;20067;-67
2022/04/30 10:23:26;;;;;;;8.73;4.80;;;10.90;72.50;;;;;;5070814;28;20045;-66
2022/04/30 10:25:53;;;;;;;7.53;5.30;;;11.00;72.60;;;;;;5079206;28;20507;-67
2022/04/30 10:28:23;;;;;;;8.10;4.50;;;11.10;72.80;;;;;;5090117;28;20044;-67
2022/04/30 10:31:07;;;;;;;11.13;4.90;;;11.10;72.20;;;;;;5084561;28;20139;-67
2022/04/30 10:33:33;;;;;;;15.38;5.60;;;11.10;71.60;;;;;;5070434;28;20390;-66
2022/04/30 10:36:19;;;;;;;14.05;7.32;;;11.10;71.80;;;;;;5077659;28;20062;-66
2022/04/30 10:38:55;;;;;;;7.22;4.00;;;11.10;71.50;;;;;;5089961;28;20048;-68
2022/04/30 10:41:21;;;;;;;6.18;3.50;;;11.10;71.30;;;;;;5090855;28;20036;-66
2022/04/30 10:43:46;;;;;;;7.10;3.20;;;11.10;70.80;;;;;;5090483;28;20155;-65
2022/04/30 10:46:19;;;;;;;6.18;3.65;;;11.00;70.10;;;;;;5090227;28;20467;-67
2022/04/30 10:48:45;;;;;;;5.25;3.83;;;11.00;69.60;;;;;;5073258;28;20076;-67
2022/04/30 10:51:13;;;;;;;7.68;5.03;;;11.00;69.40;;;;;;5068886;28;20075;-66
2022/04/30 10:53:41;;;;;;;8.70;4.53;;;11.00;69.30;;;;;;5087009;28;20105;-67
2022/04/30 10:56:08;;;;;;;10.10;4.60;;;11.00;69.80;;;;;;5090459;28;20058;-67
2022/04/30 10:58:36;;;;;;;9.70;4.78;;;10.90;70.00;;;;;;5089667;28;20082;-67
2022/04/30 11:01:16;;;;;;;9.98;4.68;;;10.90;70.20;;;;;;5089369;28;20048;-66
2022/04/30 11:03:43;;;;;;;9.00;6.10;;;11.00;70.30;;;;;;5075467;28;20051;-66
2022/04/30 11:06:27;;;;;;;9.43;4.88;;;10.90;70.60;;;;;;5069778;28;20057;-66
2022/04/30 11:09:00;;;;;;;8.15;4.07;;;11.00;70.50;;;;;;5069528;28;20053;-66
2022/04/30 11:11:26;;;;;;;9.02;4.28;;;11.00;70.50;;;;;;5070210;28;20055;-66
2022/04/30 11:14:11;;;;;;;5.82;4.00;;;11.00;69.30;;;;;;5086425;28;20040;-67
2022/04/30 11:16:49;;;;;;;8.02;4.63;;;11.10;68.70;;;;;;5090556;28;20040;-66
2022/04/30 11:19:17;;;;;;;7.82;3.40;;;11.00;68.80;;;;;;5082496;28;20048;-66
2022/04/30 11:21:49;;;;;;;7.65;4.25;;;11.00;68.90;;;;;;5087808;28;20055;-67
2022/04/30 11:24:22;;;;;;;7.55;4.63;;;11.10;68.80;;;;;;5089590;28;20167;-68
2022/04/30 11:26:48;;;;;;;6.60;3.40;;;11.10;68.20;;;;;;5089613;28;20063;-67
2022/04/30 11:29:14;;;;;;;6.53;3.72;;;11.10;68.40;;;;;;5089396;28;20039;-67
2022/04/30 11:31:42;;;;;;;7.45;3.05;;;11.10;68.20;;;;;;5086582;28;20654;-66
2022/04/30 11:34:15;;;;;;;11.57;4.15;;;11.20;68.20;;;;;;5068348;28;20501;-67
2022/04/30 11:36:43;;;;;;;8.93;3.58;;;11.30;68.50;;;;;;5072099;28;20135;-67
2022/04/30 11:39:11;;;;;;;7.40;3.95;;;11.30;68.80;;;;;;5087519;28;20045;-66
2022/04/30 11:41:41;;;;;;;7.32;3.85;;;11.30;69.10;;;;;;5078313;28;20040;-66
2022/04/30 11:44:09;;;;;;;6.78;3.28;;;11.40;69.00;;;;;;5089236;28;20036;-66
2022/04/30 11:46:39;;;;;;;4.53;2.83;;;11.40;68.70;;;;;;5074394;28;20075;-67
2022/04/30 11:49:12;;;;;;;7.05;3.58;;;11.40;68.60;;;;;;5074700;28;20044;-66
2022/04/30 11:51:39;;;;;;;5.38;3.33;;;11.40;68.40;;;;;;5069346;28;20044;-66
2022/04/30 11:54:08;;;;;;;5.72;2.80;;;11.60;68.50;;;;;;5086479;28;20524;-66
2022/04/30 11:56:35;;;;;;;7.97;2.88;;;11.60;67.90;;;;;;5085963;28;20569;-66
2022/04/30 11:59:01;;;;;;;6.97;3.60;;;11.60;67.30;;;;;;5089644;28;20659;-66
2022/04/30 12:01:30;;;;;;;5.93;2.97;;;11.70;66.90;;;;;;5079741;28;20055;-66
2022/04/30 12:04:04;;;;;;;6.05;3.78;;;11.80;66.20;;;;;;5068850;28;20063;-66
2022/04/30 12:06:31;;;;;;;5.00;3.72;;;11.80;65.70;;;;;;5070807;28;20115;-66
2022/04/30 12:08:57;;;;;;;6.75;4.40;;;11.80;65.90;;;;;;5069261;28;20080;-66
2022/04/30 12:11:24;;;;;;;10.65;4.35;;;11.80;66.00;;;;;;5069435;28;20057;-66
2022/04/30 12:14:16;;;;;;;6.85;4.60;;;11.90;65.60;;;;;;5068500;28;20033;-66
2022/04/30 12:16:43;;;;;;;6.60;5.07;;;11.90;65.30;;;;;;5069462;28;20053;-66
2022/04/30 12:25:07;;;;;;;8.80;4.63;;;11.90;66.70;;;;;;5068654;28;20092;-66
2022/04/30 12:27:33;;;;;;;8.02;4.60;;;11.90;66.80;;;;;;5077806;28;20044;-66
2022/04/30 12:30:04;;;;;;;8.45;4.50;;;11.90;66.50;;;;;;5088620;28;20044;-66
2022/04/30 12:32:30;;;;;;;7.87;5.00;;;11.90;66.30;;;;;;5081967;28;20044;-66
2022/04/30 12:34:57;;;;;;;8.23;4.93;;;12.00;66.10;;;;;;5068603;28;20282;-67
2022/04/30 12:37:33;;;;;;;7.38;3.88;;;12.00;66.10;;;;;;5069639;28;20084;-67
2022/04/30 12:40:00;;;;;;;8.52;2.80;;;12.00;65.30;;;;;;5079847;28;20050;-66
2022/04/30 12:42:26;;;;;;;5.93;2.80;;;11.90;64.60;;;;;;5068720;28;20128;-66
2022/04/30 12:44:51;;;;;;;4.93;2.70;;;12.00;63.80;;;;;;5082162;28;20394;-67
2022/04/30 12:47:17;;;;;;;7.30;3.13;;;12.00;62.90;;;;;;5088724;28;20055;-68
2022/04/30 12:49:42;;;;;;;5.13;2.28;;;12.10;61.40;;;;;;5088488;28;20084;-68
2022/04/30 12:52:08;;;;;;;6.72;2.08;;;12.10;61.30;;;;;;5088480;28;20070;-68
2022/04/30 12:54:34;;;;;;;8.50;1.83;;;12.10;60.90;;;;;;5087114;28;20047;-67
2022/04/30 12:56:59;;;;;;;4.90;1.98;;;12.10;60.70;;;;;;5084929;28;20032;-67
2022/04/30 12:59:25;;;;;;;3.10;1.75;;;12.20;60.60;;;;;;5086408;28;20036;-66
2022/04/30 13:01:52;;;;;;;3.28;2.22;;;12.20;60.30;;;;;;5075045;28;20394;-66
2022/04/30 13:04:18;;;;;;;3.15;1.55;;;12.30;60.00;;;;;;5088607;28;20050;-66
2022/04/30 13:06:44;;;;;;;4.75;1.77;;;12.30;59.50;;;;;;5088279;28;20052;-68
2022/04/30 13:14:38;;;;;;;4.72;2.30;;;12.40;59.30;;;;;;5087664;28;20083;-67
2022/04/30 13:17:03;;;;;;;3.40;2.08;;;12.50;59.60;;;;;;5088757;28;20561;-67
2022/04/30 13:19:31;;;;;;;6.72;2.95;;;12.60;59.40;;;;;;5088403;28;20749;-67
2022/04/30 13:21:57;;;;;;;8.30;3.00;;;12.60;58.90;;;;;;5075835;28;20049;-67
2022/04/30 13:24:23;;;;;;;9.93;3.50;;;12.60;59.10;;;;;;5073954;28;20106;-67
2022/04/30 13:26:48;;;;;;;7.03;3.22;;;12.60;59.00;;;;;;5069015;28;20489;-67
2022/04/30 13:29:14;;;;;;;4.75;3.47;;;12.60;60.00;;;;;;5085085;28;20110;-67
2022/04/30 13:31:41;;;;;;;6.95;4.28;;;12.70;60.50;;;;;;5074688;28;20044;-67
2022/04/30 13:34:08;;;;;;;9.38;4.30;;;12.70;60.00;;;;;;5071834;28;20052;-68